Time;durP1;ratioP1;P1;durP2;ratioP2;P2;SDS_P1;SDS_P2;PMS_P1;PMS_P2;Temp;Humidity;BMP_temperature;BMP_pressure;BME280_temperature;BME280_humidity;BME280_pressure;Samples;Min_cycle;Max_cycle;Signal;HPM_P1;HPM_P2
2021/05/15 00:02:27;;;;;;;15.17;13.67;;;9.40;99.90;;;;;;4937122;29;20925;-78
2021/05/15 00:04:53;;;;;;;15.57;13.93;;;9.40;99.90;;;;;;4936912;29;21008;-78
2021/05/15 00:07:20;;;;;;;15.30;13.57;;;9.30;99.90;;;;;;4936973;29;20439;-78
2021/05/15 00:09:46;;;;;;;16.87;14.40;;;9.30;99.90;;;;;;4936928;29;20467;-78
2021/05/15 00:12:13;;;;;;;16.87;14.53;;;9.30;99.90;;;;;;4935620;29;20543;-78
2021/05/15 00:14:39;;;;;;;14.73;13.23;;;9.20;99.90;;;;;;4935583;29;20862;-79
2021/05/15 00:17:06;;;;;;;20.90;14.17;;;9.20;99.90;;;;;;4935353;29;20489;-79
2021/05/15 00:19:34;;;;;;;16.90;14.93;;;9.10;99.90;;;;;;4935447;29;20854;-79
2021/05/15 00:22:01;;;;;;;16.40;14.60;;;9.10;99.90;;;;;;4936993;29;20516;-79
2021/05/15 00:24:27;;;;;;;16.63;14.00;;;9.10;99.90;;;;;;4935516;29;20495;-78
2021/05/15 00:26:54;;;;;;;15.70;14.10;;;9.10;99.90;;;;;;4936958;29;20442;-78
2021/05/15 00:29:20;;;;;;;19.20;14.40;;;9.10;99.90;;;;;;4936636;29;20470;-78
2021/05/15 00:31:47;;;;;;;14.97;13.27;;;9.00;99.90;;;;;;4935760;29;20494;-78
2021/05/15 00:34:13;;;;;;;16.17;14.50;;;9.00;99.90;;;;;;4935270;29;20451;-78
2021/05/15 00:36:41;;;;;;;17.23;15.40;;;9.00;99.90;;;;;;4936490;29;20432;-78
2021/05/15 00:39:08;;;;;;;17.30;14.77;;;9.00;99.90;;;;;;4936316;29;20965;-78
2021/05/15 00:41:36;;;;;;;16.30;14.60;;;9.00;99.90;;;;;;4935136;29;20509;-78
2021/05/15 00:44:13;;;;;;;16.50;14.77;;;8.90;99.90;;;;;;4936526;29;20482;-78
2021/05/15 00:46:41;;;;;;;16.23;14.43;;;8.90;99.90;;;;;;4934102;29;20455;-79
2021/05/15 00:49:08;;;;;;;18.43;14.90;;;8.90;99.90;;;;;;4934851;29;22264;-78
2021/05/15 00:51:35;;;;;;;20.73;14.60;;;8.80;99.90;;;;;;4934847;29;20891;-79
2021/05/15 00:54:03;;;;;;;17.00;15.17;;;8.80;99.90;;;;;;4934995;29;20481;-78
2021/05/15 00:56:30;;;;;;;18.17;14.47;;;8.80;99.90;;;;;;4936206;29;20458;-78
2021/05/15 00:58:57;;;;;;;15.80;14.07;;;8.70;99.90;;;;;;4936370;29;20444;-79
2021/05/15 01:01:24;;;;;;;17.10;15.30;;;8.70;99.90;;;;;;4934880;29;20542;-78
2021/05/15 01:03:50;;;;;;;17.00;15.13;;;8.70;99.90;;;;;;4936138;29;21001;-78
2021/05/15 01:06:17;;;;;;;19.00;15.73;;;8.70;99.90;;;;;;4934695;29;21027;-78
2021/05/15 01:08:45;;;;;;;17.27;14.23;;;8.70;99.90;;;;;;4934763;29;20447;-78
2021/05/15 01:11:13;;;;;;;17.43;14.77;;;8.60;99.90;;;;;;4934940;29;20479;-78
2021/05/15 01:13:40;;;;;;;16.90;14.63;;;8.60;99.90;;;;;;4934727;29;20503;-78
2021/05/15 01:16:07;;;;;;;17.70;15.77;;;8.60;99.90;;;;;;4935544;29;20531;-78
2021/05/15 01:18:34;;;;;;;20.73;15.97;;;8.70;99.90;;;;;;4935922;29;21023;-78
2021/05/15 01:21:02;;;;;;;16.37;14.67;;;8.60;99.90;;;;;;4934703;29;20518;-78
2021/05/15 01:23:28;;;;;;;22.00;16.30;;;8.70;99.90;;;;;;4934485;29;20884;-78
2021/05/15 01:25:55;;;;;;;18.23;15.40;;;8.70;99.90;;;;;;4935958;29;20505;-78
2021/05/15 01:28:22;;;;;;;18.20;15.60;;;8.70;99.90;;;;;;4934542;29;20980;-78
2021/05/15 01:30:49;;;;;;;17.27;14.90;;;8.70;99.90;;;;;;4934388;29;20916;-78
2021/05/15 01:33:16;;;;;;;17.73;15.27;;;8.70;99.90;;;;;;4934746;29;20490;-78
2021/05/15 01:35:42;;;;;;;17.20;14.93;;;8.70;99.90;;;;;;4934552;29;20479;-78
2021/05/15 01:38:09;;;;;;;18.37;16.37;;;8.70;99.90;;;;;;4932398;29;20466;-79
2021/05/15 01:40:36;;;;;;;20.83;17.10;;;8.70;99.90;;;;;;4934316;29;20489;-78
2021/05/15 01:43:02;;;;;;;18.83;15.70;;;8.70;99.90;;;;;;4934410;29;20501;-78
2021/05/15 01:45:29;;;;;;;17.73;15.83;;;8.70;99.90;;;;;;4934953;29;21088;-78
2021/05/15 01:47:55;;;;;;;17.27;15.07;;;8.70;99.90;;;;;;4938202;29;21039;-78
2021/05/15 01:50:22;;;;;;;17.80;15.93;;;8.70;99.90;;;;;;4939317;29;20465;-78
2021/05/15 01:52:48;;;;;;;16.87;15.00;;;8.70;99.90;;;;;;4939244;29;20832;-79
2021/05/15 01:55:21;;;;;;;20.17;17.27;;;8.70;99.90;;;;;;4939335;29;20442;-78
2021/05/15 01:57:48;;;;;;;19.40;17.00;;;8.70;99.90;;;;;;4939452;29;20860;-78
2021/05/15 02:00:16;;;;;;;20.03;16.57;;;8.70;99.90;;;;;;4938071;29;20477;-78
2021/05/15 02:02:43;;;;;;;19.13;16.20;;;8.70;99.90;;;;;;4937890;29;20462;-78
2021/05/15 02:05:11;;;;;;;18.40;15.70;;;8.70;99.90;;;;;;4939065;29;20493;-78
2021/05/15 02:07:37;;;;;;;20.07;17.97;;;8.70;99.90;;;;;;4935130;29;20465;-79
2021/05/15 02:10:04;;;;;;;16.70;14.90;;;8.70;99.90;;;;;;4934827;29;20525;-78
2021/05/15 02:12:32;;;;;;;19.20;16.50;;;8.70;99.90;;;;;;4938371;29;20454;-79
2021/05/15 02:14:58;;;;;;;20.27;17.93;;;8.70;99.90;;;;;;4938932;29;20474;-79
2021/05/15 02:17:25;;;;;;;19.30;17.03;;;8.70;99.90;;;;;;4938937;29;20469;-78
2021/05/15 02:19:51;;;;;;;20.03;16.43;;;8.80;99.90;;;;;;4937576;29;20474;-78
2021/05/15 02:22:18;;;;;;;20.53;16.83;;;8.80;99.90;;;;;;4938522;29;20492;-78
2021/05/15 02:24:44;;;;;;;21.97;17.20;;;8.80;99.90;;;;;;4938735;29;20476;-79
2021/05/15 02:27:10;;;;;;;18.90;16.50;;;8.80;99.90;;;;;;4938917;29;20841;-79
2021/05/15 02:29:38;;;;;;;22.93;19.10;;;8.80;99.90;;;;;;4937320;29;20482;-79
2021/05/15 02:32:05;;;;;;;20.23;17.57;;;8.80;99.90;;;;;;4937595;29;20541;-79
2021/05/15 02:34:31;;;;;;;20.50;17.20;;;8.80;99.90;;;;;;4937308;29;20482;-78
2021/05/15 02:36:58;;;;;;;24.10;18.43;;;8.90;99.90;;;;;;4938034;29;20869;-78
2021/05/15 02:39:24;;;;;;;23.13;19.33;;;8.90;99.90;;;;;;4938382;29;20501;-78
2021/05/15 02:41:50;;;;;;;20.77;18.33;;;8.90;99.90;;;;;;4937264;29;20459;-78
2021/05/15 02:44:17;;;;;;;22.80;18.80;;;8.90;99.90;;;;;;4938282;29;20989;-78
2021/05/15 02:46:44;;;;;;;22.00;17.57;;;8.90;99.90;;;;;;4938856;29;20474;-78
2021/05/15 02:49:11;;;;;;;20.27;17.43;;;8.90;99.90;;;;;;4935165;29;20889;-79
2021/05/15 02:51:37;;;;;;;21.03;18.37;;;8.90;99.90;;;;;;4935702;29;20506;-79
2021/05/15 02:54:04;;;;;;;22.33;18.80;;;8.90;99.90;;;;;;4938226;29;20549;-78
2021/05/15 02:56:30;;;;;;;20.93;17.70;;;8.90;99.90;;;;;;4936731;29;20458;-78
2021/05/15 02:58:57;;;;;;;22.20;17.70;;;8.90;99.90;;;;;;4935804;29;20488;-78
2021/05/15 03:01:23;;;;;;;24.07;19.70;;;8.90;99.90;;;;;;4937862;29;20445;-78
2021/05/15 03:03:51;;;;;;;26.77;19.40;;;8.90;99.90;;;;;;4937757;29;20477;-78
2021/05/15 03:06:17;;;;;;;21.60;18.30;;;9.00;99.90;;;;;;4937798;29;20445;-78
2021/05/15 03:08:44;;;;;;;20.67;18.23;;;9.00;99.90;;;;;;4936563;29;20446;-78
2021/05/15 03:11:11;;;;;;;22.20;18.77;;;9.00;99.90;;;;;;4935217;29;20955;-78
2021/05/15 03:13:37;;;;;;;22.57;17.53;;;9.00;99.90;;;;;;4936535;29;20306;-78
2021/05/15 03:16:04;;;;;;;25.33;20.10;;;9.10;99.90;;;;;;4936586;29;20467;-78
2021/05/15 03:18:31;;;;;;;22.40;18.00;;;9.00;99.90;;;;;;4936528;29;20463;-78
2021/05/15 03:20:58;;;;;;;24.53;19.20;;;9.00;99.90;;;;;;4936449;29;20533;-78
2021/05/15 03:23:25;;;;;;;24.67;20.17;;;9.00;99.90;;;;;;4936456;29;20454;-78
2021/05/15 03:25:51;;;;;;;22.90;19.10;;;9.00;99.90;;;;;;4937901;29;20988;-78
2021/05/15 03:28:18;;;;;;;25.67;19.30;;;9.00;99.90;;;;;;4937651;29;20545;-78
2021/05/15 03:30:44;;;;;;;24.53;19.40;;;9.10;99.90;;;;;;4935981;29;20515;-79
2021/05/15 03:33:11;;;;;;;22.50;17.87;;;9.10;99.90;;;;;;4936272;29;20873;-78
2021/05/15 03:35:37;;;;;;;23.90;18.30;;;9.10;99.90;;;;;;4936129;29;20478;-79
2021/05/15 03:38:05;;;;;;;21.33;17.87;;;9.10;99.90;;;;;;4936206;29;20457;-79
2021/05/15 03:40:31;;;;;;;24.67;18.57;;;9.10;99.90;;;;;;4936108;29;20577;-79
2021/05/15 03:42:58;;;;;;;24.27;18.63;;;9.10;99.90;;;;;;4936026;29;20459;-79
2021/05/15 03:45:24;;;;;;;23.53;18.17;;;9.10;99.90;;;;;;4935916;29;20892;-79
2021/05/15 03:47:51;;;;;;;19.80;16.57;;;9.10;99.90;;;;;;4935929;29;20519;-79
2021/05/15 03:50:17;;;;;;;21.33;17.23;;;9.10;99.90;;;;;;4935767;29;20526;-79
2021/05/15 03:52:44;;;;;;;25.10;17.07;;;9.10;99.90;;;;;;4935879;29;20462;-79
2021/05/15 03:55:12;;;;;;;21.50;15.53;;;9.10;99.90;;;;;;4934996;29;20486;-79
2021/05/15 03:57:38;;;;;;;23.90;17.77;;;9.10;99.90;;;;;;4937011;29;20434;-79
2021/05/15 04:00:08;;;;;;;20.13;17.10;;;9.10;99.90;;;;;;4936865;29;20474;-79
2021/05/15 04:02:35;;;;;;;21.47;16.37;;;9.10;99.90;;;;;;4939137;29;20450;-80
2021/05/15 04:05:01;;;;;;;24.43;16.87;;;9.20;99.90;;;;;;4937927;29;20511;-80
2021/05/15 04:07:28;;;;;;;25.17;16.97;;;9.20;99.90;;;;;;4937472;29;20538;-78
2021/05/15 04:09:54;;;;;;;21.10;17.23;;;9.20;99.90;;;;;;4938175;29;20490;-78
2021/05/15 04:12:23;;;;;;;20.70;16.90;;;9.20;99.90;;;;;;4937321;29;20976;-78
2021/05/15 04:14:52;;;;;;;21.27;17.37;;;9.20;99.90;;;;;;4936968;29;20500;-78
2021/05/15 04:17:27;;;;;;;21.60;16.50;;;9.20;99.90;;;;;;4936570;29;20475;-78
2021/05/15 04:19:54;;;;;;;22.80;16.47;;;9.20;99.90;;;;;;4938642;29;20503;-78
2021/05/15 04:22:21;;;;;;;22.07;16.07;;;9.20;99.90;;;;;;4938782;29;20546;-78
2021/05/15 04:24:47;;;;;;;23.87;16.47;;;9.20;99.90;;;;;;4938217;29;20868;-78
2021/05/15 04:27:14;;;;;;;20.30;16.33;;;9.30;99.90;;;;;;4936604;29;20557;-78
2021/05/15 04:29:42;;;;;;;21.50;16.00;;;9.30;99.90;;;;;;4936615;29;20483;-78
2021/05/15 04:32:09;;;;;;;19.53;15.00;;;9.30;99.90;;;;;;4936423;29;21010;-78
2021/05/15 04:34:35;;;;;;;20.88;16.10;;;9.30;99.90;;;;;;4938113;29;20844;-78
2021/05/15 04:37:02;;;;;;;19.87;14.00;;;9.40;99.90;;;;;;4937007;29;20200;-78
2021/05/15 04:39:30;;;;;;;19.90;15.13;;;9.40;99.90;;;;;;4937716;29;20923;-78
2021/05/15 04:41:57;;;;;;;17.93;15.00;;;9.40;99.90;;;;;;4937339;29;20526;-79
2021/05/15 04:44:23;;;;;;;20.27;15.52;;;9.40;99.90;;;;;;4935465;29;20488;-79
2021/05/15 04:46:51;;;;;;;19.43;14.00;;;9.50;99.90;;;;;;4937317;29;20535;-79
2021/05/15 04:49:18;;;;;;;20.70;13.93;;;9.50;99.90;;;;;;4937689;29;20979;-78
2021/05/15 04:51:45;;;;;;;19.50;13.83;;;9.50;99.90;;;;;;4936520;29;20464;-78
2021/05/15 04:54:11;;;;;;;18.73;14.53;;;9.60;99.90;;;;;;4937775;29;20483;-78
2021/05/15 04:56:38;;;;;;;20.77;14.10;;;9.60;99.90;;;;;;4934390;29;20451;-78
2021/05/15 04:59:06;;;;;;;16.60;14.20;;;9.60;99.90;;;;;;4933513;29;20519;-78
2021/05/15 05:01:32;;;;;;;18.30;14.53;;;9.60;99.90;;;;;;4936847;29;20463;-78
2021/05/15 05:04:02;;;;;;;19.90;14.53;;;9.70;99.90;;;;;;4937037;29;20823;-78
2021/05/15 05:06:29;;;;;;;18.33;14.30;;;9.70;99.90;;;;;;4938335;29;20469;-78
2021/05/15 05:08:56;;;;;;;20.20;14.90;;;9.70;99.90;;;;;;4936376;29;20506;-78
2021/05/15 05:11:22;;;;;;;16.63;13.23;;;9.70;99.90;;;;;;4938321;29;20441;-80
2021/05/15 05:13:48;;;;;;;19.10;14.30;;;9.70;99.90;;;;;;4938964;29;20447;-79
2021/05/15 05:16:15;;;;;;;18.87;14.70;;;9.80;99.90;;;;;;4938035;29;20467;-79
2021/05/15 05:18:41;;;;;;;18.67;13.43;;;9.80;99.90;;;;;;4939686;29;20543;-79
2021/05/15 05:21:09;;;;;;;21.50;14.80;;;9.80;99.90;;;;;;4941857;29;20464;-80
2021/05/15 05:23:35;;;;;;;20.77;14.90;;;9.90;99.90;;;;;;4943377;29;20448;-80
2021/05/15 05:26:01;;;;;;;21.23;14.57;;;9.90;99.90;;;;;;4942901;29;20485;-79
2021/05/15 05:28:34;;;;;;;18.80;14.10;;;9.90;99.90;;;;;;4942458;29;20473;-79
2021/05/15 05:31:03;;;;;;;22.47;14.00;;;9.90;99.90;;;;;;4941794;29;20544;-79
2021/05/15 05:33:29;;;;;;;20.63;15.30;;;9.90;99.90;;;;;;4942413;29;20506;-79
2021/05/15 05:35:56;;;;;;;19.67;14.63;;;9.90;99.90;;;;;;4943088;29;20440;-78
2021/05/15 05:38:23;;;;;;;19.90;14.53;;;9.90;99.90;;;;;;4942534;29;20487;-80
2021/05/15 05:40:50;;;;;;;20.27;14.70;;;10.00;99.90;;;;;;4942428;29;20559;-79
2021/05/15 05:43:16;;;;;;;19.57;14.50;;;10.00;99.90;;;;;;4943184;29;20912;-78
2021/05/15 05:45:43;;;;;;;18.10;14.37;;;10.10;99.90;;;;;;4943926;29;20842;-78
2021/05/15 05:48:09;;;;;;;20.47;14.27;;;10.10;99.90;;;;;;4941116;29;20456;-79
2021/05/15 05:50:36;;;;;;;19.80;15.40;;;10.20;99.90;;;;;;4943576;29;20470;-79
2021/05/15 05:53:03;;;;;;;24.43;14.97;;;10.20;99.90;;;;;;4942572;29;20455;-79
2021/05/15 05:55:30;;;;;;;21.10;15.70;;;10.30;99.90;;;;;;4943852;29;20447;-79
2021/05/15 05:57:57;;;;;;;25.40;15.60;;;10.40;99.90;;;;;;4944368;29;20472;-80
2021/05/15 06:00:24;;;;;;;24.90;15.20;;;10.40;99.90;;;;;;4942472;29;20490;-80
2021/05/15 06:02:50;;;;;;;22.67;15.40;;;10.50;99.90;;;;;;4943543;29;20941;-79
2021/05/15 06:05:17;;;;;;;22.90;16.67;;;10.50;99.90;;;;;;4943213;29;20566;-79
2021/05/15 06:07:43;;;;;;;22.63;15.85;;;10.50;99.90;;;;;;4942938;29;20477;-79
2021/05/15 06:10:10;;;;;;;22.17;14.27;;;10.60;99.90;;;;;;4940950;29;20231;-79
2021/05/15 06:12:37;;;;;;;22.60;15.80;;;10.70;99.90;;;;;;4940386;29;20529;-79
2021/05/15 06:15:06;;;;;;;26.43;16.50;;;10.70;99.90;;;;;;4940440;29;20954;-80
2021/05/15 06:17:32;;;;;;;22.60;15.43;;;10.70;99.90;;;;;;4939564;29;20457;-80
2021/05/15 06:20:00;;;;;;;25.00;14.43;;;10.80;99.90;;;;;;4940842;29;20223;-79
2021/05/15 06:22:27;;;;;;;25.30;14.57;;;10.90;99.90;;;;;;4941714;29;20454;-79
2021/05/15 06:24:53;;;;;;;21.03;15.60;;;10.90;99.90;;;;;;4940110;29;20471;-79
2021/05/15 06:27:20;;;;;;;28.63;16.37;;;11.00;99.90;;;;;;4940688;29;20530;-79
2021/05/15 06:29:47;;;;;;;29.60;17.07;;;11.00;99.90;;;;;;4940087;29;20479;-79
2021/05/15 06:32:13;;;;;;;25.10;16.50;;;11.00;99.90;;;;;;4940390;29;20452;-79
2021/05/15 06:34:40;;;;;;;24.57;15.90;;;11.10;99.90;;;;;;4941797;29;20454;-79
2021/05/15 06:37:06;;;;;;;24.90;17.10;;;11.20;99.90;;;;;;4941439;29;20456;-80
2021/05/15 06:39:33;;;;;;;28.80;17.00;;;11.20;99.90;;;;;;4941997;29;20479;-80
2021/05/15 06:41:59;;;;;;;37.33;17.77;;;11.30;99.90;;;;;;4942121;29;20444;-79
2021/05/15 06:44:26;;;;;;;26.30;18.70;;;11.30;99.90;;;;;;4941687;29;20479;-79
2021/05/15 06:46:53;;;;;;;25.47;17.40;;;11.30;99.90;;;;;;4943720;29;20436;-79
2021/05/15 06:49:20;;;;;;;27.10;18.37;;;11.40;99.90;;;;;;4940923;29;20476;-79
2021/05/15 06:51:46;;;;;;;27.53;17.93;;;11.40;99.90;;;;;;4942653;29;20468;-80
2021/05/15 06:54:13;;;;;;;28.17;19.43;;;11.40;99.90;;;;;;4942671;29;20647;-79
2021/05/15 06:56:40;;;;;;;27.90;19.47;;;11.50;99.90;;;;;;4944416;29;20436;-79
2021/05/15 06:59:06;;;;;;;32.67;19.70;;;11.50;99.90;;;;;;4944721;29;20790;-79
2021/05/15 07:01:33;;;;;;;27.17;19.40;;;11.50;99.90;;;;;;4944129;29;20514;-79
2021/05/15 07:04:00;;;;;;;23.93;19.03;;;11.50;99.90;;;;;;4942266;29;20488;-79
2021/05/15 07:06:27;;;;;;;25.33;18.70;;;11.50;99.90;;;;;;4944226;29;20440;-80
2021/05/15 07:08:53;;;;;;;31.10;19.93;;;11.60;99.90;;;;;;4940473;29;20844;-80
2021/05/15 07:11:20;;;;;;;26.87;18.73;;;11.60;99.90;;;;;;4938849;29;20459;-80
2021/05/15 07:13:46;;;;;;;24.00;18.23;;;11.70;99.90;;;;;;4941846;29;20432;-80
2021/05/15 07:16:13;;;;;;;24.37;19.70;;;11.70;99.90;;;;;;4939828;29;20499;-80
2021/05/15 07:18:39;;;;;;;24.23;18.30;;;11.80;99.90;;;;;;4944942;29;20516;-79
2021/05/15 07:21:07;;;;;;;25.70;18.50;;;11.90;99.90;;;;;;4945016;29;20460;-80
2021/05/15 07:23:33;;;;;;;31.03;18.87;;;12.00;99.90;;;;;;4943576;29;20459;-79
2021/05/15 07:26:00;;;;;;;24.90;19.47;;;12.10;99.90;;;;;;4944003;29;20949;-79
2021/05/15 07:28:26;;;;;;;27.43;21.50;;;12.20;99.90;;;;;;4945231;29;20824;-79
2021/05/15 07:30:53;;;;;;;29.77;20.40;;;12.30;99.90;;;;;;4944235;29;20523;-79
2021/05/15 07:33:19;;;;;;;25.43;20.60;;;12.30;99.90;;;;;;4944715;29;20444;-80
2021/05/15 07:35:46;;;;;;;27.40;19.67;;;12.40;99.90;;;;;;4943219;29;20460;-79
2021/05/15 07:38:13;;;;;;;24.73;19.50;;;12.40;99.90;;;;;;4943414;29;20467;-80
2021/05/15 07:40:40;;;;;;;27.03;20.20;;;12.30;99.90;;;;;;4942222;29;20507;-80
2021/05/15 07:43:07;;;;;;;27.87;20.60;;;12.30;99.90;;;;;;4941445;29;20459;-80
2021/05/15 07:45:33;;;;;;;25.40;19.98;;;12.30;99.90;;;;;;4941886;29;20463;-80
2021/05/15 07:48:00;;;;;;;33.87;23.40;;;12.50;99.90;;;;;;4943125;29;20191;-80
2021/05/15 07:50:28;;;;;;;27.43;20.43;;;12.50;99.90;;;;;;4942012;29;20849;-80
2021/05/15 07:52:54;;;;;;;25.43;18.83;;;12.60;99.90;;;;;;4942444;29;20559;-79
2021/05/15 07:55:22;;;;;;;27.00;20.73;;;12.70;99.90;;;;;;4942688;29;20467;-79
2021/05/15 07:57:50;;;;;;;24.90;18.60;;;12.80;99.90;;;;;;4942531;29;20869;-79
2021/05/15 08:00:17;;;;;;;25.70;19.90;;;12.90;99.90;;;;;;4943288;29;20491;-79
2021/05/15 08:02:44;;;;;;;25.63;20.80;;;12.90;99.90;;;;;;4942388;29;20462;-79
2021/05/15 08:05:11;;;;;;;24.80;18.67;;;13.00;99.90;;;;;;4942591;29;20476;-79
2021/05/15 08:07:38;;;;;;;26.03;19.77;;;13.10;99.90;;;;;;4943429;29;20440;-79
2021/05/15 08:10:06;;;;;;;26.03;18.97;;;13.10;99.90;;;;;;4942627;29;20929;-79
2021/05/15 08:12:34;;;;;;;32.93;22.27;;;13.20;99.90;;;;;;4942169;29;20460;-79
2021/05/15 08:15:01;;;;;;;28.40;20.27;;;13.30;99.90;;;;;;4943528;29;20454;-79
2021/05/15 08:17:27;;;;;;;29.20;20.67;;;13.30;99.90;;;;;;4942414;29;20449;-79
2021/05/15 08:19:55;;;;;;;27.20;19.30;;;13.40;99.90;;;;;;4941632;29;20472;-79
2021/05/15 08:22:22;;;;;;;29.67;21.00;;;13.40;99.90;;;;;;4942212;29;20985;-79
2021/05/15 08:24:48;;;;;;;24.40;21.13;;;13.40;99.90;;;;;;4941560;29;20522;-81
2021/05/15 08:27:15;;;;;;;27.20;19.70;;;13.40;99.90;;;;;;4940373;29;20613;-80
2021/05/15 08:29:42;;;;;;;26.03;19.90;;;13.40;99.90;;;;;;4940488;29;20475;-80
2021/05/15 08:32:09;;;;;;;30.00;24.30;;;13.40;99.90;;;;;;4941324;29;20445;-81
2021/05/15 08:34:35;;;;;;;25.40;20.50;;;13.40;99.90;;;;;;4944281;29;20537;-81
2021/05/15 08:37:05;;;;;;;22.50;19.77;;;13.40;99.90;;;;;;4942346;29;20444;-81
2021/05/15 08:39:32;;;;;;;26.17;19.00;;;13.40;99.90;;;;;;4940545;29;20484;-80
2021/05/15 08:41:58;;;;;;;24.70;19.33;;;13.40;99.90;;;;;;4940103;29;20519;-80
2021/05/15 08:44:28;;;;;;;25.67;18.90;;;13.40;99.90;;;;;;4942065;29;20472;-80
2021/05/15 08:46:57;;;;;;;23.50;19.00;;;13.30;99.90;;;;;;4940844;29;20444;-81
2021/05/15 08:49:24;;;;;;;23.83;19.60;;;13.30;99.90;;;;;;4942409;29;20809;-81
2021/05/15 08:51:53;;;;;;;24.97;20.20;;;13.30;99.90;;;;;;4942494;29;20444;-80
2021/05/15 08:54:21;;;;;;;28.37;22.40;;;13.30;99.90;;;;;;4939529;29;20463;-80
2021/05/15 08:56:48;;;;;;;26.33;19.80;;;13.40;99.90;;;;;;4938849;29;20433;-79
2021/05/15 08:59:15;;;;;;;26.70;19.60;;;13.30;99.90;;;;;;4936962;29;20472;-79
2021/05/15 09:01:42;;;;;;;25.00;19.80;;;13.40;99.90;;;;;;4936113;29;20543;-79
2021/05/15 09:04:10;;;;;;;25.60;21.80;;;13.40;99.90;;;;;;4938562;29;20504;-78
2021/05/15 09:06:40;;;;;;;28.00;22.47;;;13.40;99.90;;;;;;4936464;29;20456;-79
2021/05/15 09:09:08;;;;;;;44.47;32.70;;;13.40;99.90;;;;;;4941617;29;20410;-79
2021/05/15 09:11:36;;;;;;;30.07;23.87;;;13.40;99.90;;;;;;4937228;29;20500;-79
2021/05/15 09:14:11;;;;;;;31.20;22.50;;;13.50;99.90;;;;;;4938254;29;20463;-79
2021/05/15 09:16:46;;;;;;;33.13;22.63;;;13.50;99.90;;;;;;4919674;29;20507;-79
2021/05/15 09:19:19;;;;;;;31.27;22.47;;;13.50;99.90;;;;;;4919111;29;20442;-79
2021/05/15 09:22:00;;;;;;;28.50;21.60;;;13.50;99.90;;;;;;4933992;29;21083;-79
2021/05/15 09:24:30;;;;;;;28.57;21.60;;;13.50;99.90;;;;;;4936584;29;20447;-79
2021/05/15 09:26:59;;;;;;;32.00;23.03;;;13.40;99.90;;;;;;4936637;29;20790;-79
2021/05/15 09:29:28;;;;;;;29.73;23.80;;;13.40;99.90;;;;;;4938777;29;20534;-80
2021/05/15 09:31:55;;;;;;;30.07;23.30;;;13.40;99.90;;;;;;4937233;29;20564;-78
2021/05/15 09:34:24;;;;;;;29.27;23.33;;;13.40;99.90;;;;;;4938170;29;20454;-78
2021/05/15 09:36:56;;;;;;;29.33;24.93;;;13.40;99.90;;;;;;4935955;29;21182;-78
2021/05/15 09:39:25;;;;;;;29.33;22.70;;;13.40;99.90;;;;;;4917488;29;20486;-78
2021/05/15 09:41:54;;;;;;;32.53;24.77;;;13.40;99.90;;;;;;4929117;29;20435;-78
2021/05/15 09:44:24;;;;;;;34.00;24.10;;;13.40;99.90;;;;;;4937501;29;20535;-78
2021/05/15 09:46:53;;;;;;;29.53;24.50;;;13.40;99.90;;;;;;4936319;29;20499;-79
2021/05/15 09:49:24;;;;;;;30.00;25.07;;;13.40;99.90;;;;;;4938337;29;20461;-79
2021/05/15 09:51:53;;;;;;;33.00;24.90;;;13.40;99.90;;;;;;4935793;29;20530;-79
2021/05/15 09:54:22;;;;;;;34.73;26.17;;;13.50;99.90;;;;;;4935809;29;20485;-79
2021/05/15 09:56:58;;;;;;;34.00;25.60;;;13.50;99.90;;;;;;4936315;29;20419;-79
2021/05/15 09:59:29;;;;;;;31.90;24.90;;;13.50;99.90;;;;;;4935713;29;20534;-79
2021/05/15 10:01:58;;;;;;;33.80;26.10;;;13.50;99.90;;;;;;4937956;29;20927;-79
2021/05/15 10:04:27;;;;;;;31.70;26.17;;;13.60;99.90;;;;;;4936445;29;20507;-79
2021/05/15 10:06:56;;;;;;;30.93;25.80;;;13.60;99.90;;;;;;4937107;29;20449;-79
2021/05/15 10:09:30;;;;;;;31.57;24.77;;;13.60;99.90;;;;;;4939890;29;20450;-79
2021/05/15 10:11:58;;;;;;;38.47;27.17;;;13.70;99.90;;;;;;4939863;29;20465;-79
2021/05/15 10:14:27;;;;;;;36.13;28.53;;;13.70;99.90;;;;;;4939929;29;20450;-79
2021/05/15 10:16:54;;;;;;;37.60;27.60;;;13.90;99.90;;;;;;4939838;29;20426;-79
2021/05/15 10:19:23;;;;;;;31.77;25.37;;;13.90;99.90;;;;;;4940255;29;20854;-79
2021/05/15 10:21:52;;;;;;;33.63;26.47;;;13.90;99.90;;;;;;4940927;29;20569;-79
2021/05/15 10:24:21;;;;;;;33.17;27.43;;;14.10;99.90;;;;;;4940124;29;20451;-79
2021/05/15 10:26:57;;;;;;;35.13;29.50;;;14.20;99.90;;;;;;4940971;29;21023;-79
2021/05/15 10:29:38;;;;;;;36.00;28.60;;;14.40;99.90;;;;;;4940213;29;20450;-79
2021/05/15 10:32:09;;;;;;;36.45;31.92;;;14.60;99.90;;;;;;4940247;29;20495;-79
2021/05/15 10:34:37;;;;;;;37.03;29.40;;;14.90;99.90;;;;;;4940693;29;20246;-79
2021/05/15 10:37:15;;;;;;;33.10;28.30;;;15.00;99.90;;;;;;4941522;29;20804;-79
2021/05/15 10:39:43;;;;;;;34.40;27.30;;;15.10;99.90;;;;;;4940179;29;20492;-79
2021/05/15 10:42:12;;;;;;;31.07;27.73;;;15.20;99.90;;;;;;4939007;29;20426;-79
2021/05/15 10:44:45;;;;;;;29.43;26.27;;;15.20;99.90;;;;;;4938279;29;20470;-79
2021/05/15 10:47:15;;;;;;;28.13;24.77;;;15.30;99.90;;;;;;4937955;29;20418;-78
2021/05/15 10:49:44;;;;;;;28.97;25.43;;;15.40;99.90;;;;;;4938081;29;20489;-78
2021/05/15 10:52:16;;;;;;;26.90;24.10;;;15.50;99.90;;;;;;4939127;29;20999;-79
2021/05/15 10:54:46;;;;;;;28.13;24.30;;;15.50;99.90;;;;;;4937852;29;20442;-79
2021/05/15 10:57:15;;;;;;;26.50;23.70;;;15.60;99.90;;;;;;4940448;29;20458;-79
2021/05/15 10:59:55;;;;;;;25.80;23.00;;;15.60;99.90;;;;;;4938789;29;20482;-79
2021/05/15 11:02:31;;;;;;;27.20;24.30;;;15.70;99.90;;;;;;4938479;29;20865;-78
2021/05/15 11:05:04;;;;;;;28.07;25.13;;;15.70;99.90;;;;;;4940058;29;20489;-78
2021/05/15 11:07:35;;;;;;;30.20;26.90;;;15.70;99.90;;;;;;4936599;29;20444;-80
2021/05/15 11:10:05;;;;;;;30.57;27.23;;;15.70;99.90;;;;;;4939038;29;20985;-79
2021/05/15 11:12:40;;;;;;;27.90;25.13;;;15.80;99.90;;;;;;4938614;29;20460;-79
2021/05/15 11:15:10;;;;;;;26.97;24.10;;;15.80;99.90;;;;;;4939941;29;20427;-79
2021/05/15 11:17:38;;;;;;;25.03;22.33;;;15.90;99.90;;;;;;4938774;29;20463;-79
2021/05/15 11:20:13;;;;;;;23.67;20.90;;;16.20;99.90;;;;;;4939644;29;20480;-79
2021/05/15 11:22:44;;;;;;;24.37;21.87;;;16.50;99.90;;;;;;4941047;29;20528;-79
2021/05/15 11:25:24;;;;;;;23.83;21.33;;;16.70;99.90;;;;;;4940955;29;20465;-79
2021/05/15 11:27:54;;;;;;;23.70;21.20;;;16.80;99.90;;;;;;4940188;29;20444;-79
2021/05/15 11:30:24;;;;;;;24.20;21.60;;;16.80;99.90;;;;;;4942150;29;20474;-79
2021/05/15 11:33:01;;;;;;;24.17;21.77;;;16.90;99.90;;;;;;4940548;29;20456;-79
2021/05/15 11:35:30;;;;;;;24.90;22.30;;;17.10;99.90;;;;;;4941906;29;20427;-79
2021/05/15 11:38:06;;;;;;;26.27;23.58;;;17.20;99.90;;;;;;4939872;29;20477;-80
2021/05/15 11:40:36;;;;;;;25.10;22.50;;;17.30;99.90;;;;;;4940137;29;20239;-80
2021/05/15 11:43:04;;;;;;;23.90;21.30;;;17.40;99.90;;;;;;4941592;29;20487;-79
2021/05/15 11:45:33;;;;;;;25.47;23.17;;;17.40;99.90;;;;;;4940027;29;20531;-79
2021/05/15 11:48:19;;;;;;;22.30;20.10;;;17.50;99.90;;;;;;4941798;29;20437;-79
2021/05/15 11:51:03;;;;;;;21.63;19.50;;;17.60;99.90;;;;;;4940416;29;20296;-79
2021/05/15 11:53:33;;;;;;;22.30;20.10;;;17.70;99.90;;;;;;4939527;29;20515;-79
2021/05/15 11:56:02;;;;;;;21.40;19.30;;;17.80;99.90;;;;;;4942074;29;20424;-80
2021/05/15 11:58:30;;;;;;;21.80;19.80;;;17.80;99.90;;;;;;4942106;29;20464;-80
2021/05/15 12:01:00;;;;;;;23.50;21.30;;;17.80;99.90;;;;;;4939024;29;20486;-80
2021/05/15 12:03:29;;;;;;;20.47;18.57;;;17.80;99.90;;;;;;4940772;29;20942;-80
2021/05/15 12:05:57;;;;;;;21.27;19.27;;;17.90;99.90;;;;;;4942016;29;20478;-80
2021/05/15 12:08:25;;;;;;;19.93;18.03;;;18.00;99.90;;;;;;4943100;29;20450;-80
2021/05/15 12:11:02;;;;;;;19.87;18.07;;;18.10;99.90;;;;;;4940911;29;20484;-80
2021/05/15 12:13:30;;;;;;;19.50;17.70;;;18.20;99.90;;;;;;4942182;29;20482;-80
2021/05/15 12:15:57;;;;;;;19.37;17.53;;;18.20;99.90;;;;;;4941240;29;20448;-80
2021/05/15 12:18:26;;;;;;;18.90;17.23;;;18.20;99.90;;;;;;4941496;29;20547;-80
2021/05/15 12:20:54;;;;;;;18.83;17.17;;;18.40;99.90;;;;;;4939106;29;20503;-80
2021/05/15 12:23:24;;;;;;;17.37;15.87;;;18.50;99.90;;;;;;4938493;29;20448;-80
2021/05/15 12:25:58;;;;;;;17.80;16.20;;;18.60;99.90;;;;;;4938183;29;20483;-79
2021/05/15 12:28:28;;;;;;;19.60;17.60;;;18.60;99.90;;;;;;4938350;29;20456;-80
2021/05/15 12:30:58;;;;;;;17.13;15.53;;;18.50;99.90;;;;;;4937769;29;20595;-79
2021/05/15 12:33:27;;;;;;;17.33;15.73;;;18.50;99.90;;;;;;4939578;29;20520;-82
2021/05/15 12:36:04;;;;;;;18.30;16.60;;;18.60;99.90;;;;;;4938416;29;20448;-79